sensor_id;sensor_type;location;lat;lon;timestamp;pressure;altitude;pressure_sealevel;temperature;humidity
4392;BME280;2210;51.938;8.488;2022-09-24T00:01:10;100260.72;;;13.07;100.00
4392;BME280;2210;51.938;8.488;2022-09-24T00:05:11;100260.78;;;13.12;100.00
4392;BME280;2210;51.938;8.488;2022-09-24T00:09:18;100269.06;;;13.12;100.00
4392;BME280;2210;51.938;8.488;2022-09-24T00:13:20;100266.31;;;13.12;100.00
4392;BME280;2210;51.938;8.488;2022-09-24T00:17:21;100260.22;;;13.10;100.00
4392;BME280;2210;51.938;8.488;2022-09-24T00:21:22;100261.56;;;13.08;100.00
4392;BME280;2210;51.938;8.488;2022-09-24T00:25:23;100251.91;;;13.10;100.00
4392;BME280;2210;51.938;8.488;2022-09-24T00:29:42;100251.06;;;13.10;100.00
4392;BME280;2210;51.938;8.488;2022-09-24T00:33:42;100257.78;;;12.92;100.00
4392;BME280;2210;51.938;8.488;2022-09-24T00:37:43;100251.03;;;12.82;100.00
4392;BME280;2210;51.938;8.488;2022-09-24T00:41:44;100251.56;;;12.79;100.00
4392;BME280;2210;51.938;8.488;2022-09-24T00:45:47;100244.88;;;12.75;100.00
4392;BME280;2210;51.938;8.488;2022-09-24T00:49:48;100239.34;;;12.75;100.00
4392;BME280;2210;51.938;8.488;2022-09-24T00:53:52;100242.94;;;12.76;100.00
4392;BME280;2210;51.938;8.488;2022-09-24T00:57:56;100243.19;;;12.74;100.00
4392;BME280;2210;51.938;8.488;2022-09-24T01:01:57;100232.75;;;12.81;100.00
4392;BME280;2210;51.938;8.488;2022-09-24T01:05:58;100224.25;;;12.88;100.00
4392;BME280;2210;51.938;8.488;2022-09-24T01:09:58;100235.91;;;12.90;100.00
4392;BME280;2210;51.938;8.488;2022-09-24T01:14:14;100227.09;;;12.93;100.00
4392;BME280;2210;51.938;8.488;2022-09-24T01:18:34;100230.38;;;12.63;100.00
4392;BME280;2210;51.938;8.488;2022-09-24T01:27:15;100238.81;;;12.78;100.00
4392;BME280;2210;51.938;8.488;2022-09-24T01:31:26;100233.09;;;12.85;100.00
4392;BME280;2210;51.938;8.488;2022-09-24T01:35:34;100237.28;;;12.88;100.00
4392;BME280;2210;51.938;8.488;2022-09-24T01:39:36;100228.72;;;12.89;100.00
4392;BME280;2210;51.938;8.488;2022-09-24T01:43:37;100225.06;;;12.84;100.00
4392;BME280;2210;51.938;8.488;2022-09-24T01:47:39;100215.94;;;12.61;100.00
4392;BME280;2210;51.938;8.488;2022-09-24T01:51:49;100211.88;;;12.69;100.00
4392;BME280;2210;51.938;8.488;2022-09-24T01:56:01;100212.47;;;12.48;100.00
4392;BME280;2210;51.938;8.488;2022-09-24T02:00:17;100206.50;;;12.57;100.00
4392;BME280;2210;51.938;8.488;2022-09-24T02:04:19;100203.19;;;12.60;100.00
4392;BME280;2210;51.938;8.488;2022-09-24T02:08:27;100199.94;;;12.63;100.00
4392;BME280;2210;51.938;8.488;2022-09-24T02:12:33;100204.06;;;12.60;100.00
4392;BME280;2210;51.938;8.488;2022-09-24T02:16:42;100208.16;;;12.58;100.00
4392;BME280;2210;51.938;8.488;2022-09-24T02:20:45;100212.91;;;12.62;100.00
4392;BME280;2210;51.938;8.488;2022-09-24T02:24:53;100209.97;;;12.47;100.00
4392;BME280;2210;51.938;8.488;2022-09-24T02:28:54;100218.97;;;12.59;100.00
4392;BME280;2210;51.938;8.488;2022-09-24T02:32:54;100207.09;;;12.59;100.00
4392;BME280;2210;51.938;8.488;2022-09-24T02:37:04;100214.72;;;12.52;100.00
4392;BME280;2210;51.938;8.488;2022-09-24T02:41:05;100202.38;;;12.59;100.00
4392;BME280;2210;51.938;8.488;2022-09-24T02:45:08;100198.72;;;12.54;100.00
4392;BME280;2210;51.938;8.488;2022-09-24T02:49:09;100200.59;;;12.48;100.00
4392;BME280;2210;51.938;8.488;2022-09-24T02:53:09;100193.25;;;12.59;100.00
4392;BME280;2210;51.938;8.488;2022-09-24T02:57:10;100183.16;;;12.47;100.00
4392;BME280;2210;51.938;8.488;2022-09-24T03:01:10;100195.00;;;12.43;100.00
4392;BME280;2210;51.938;8.488;2022-09-24T03:05:10;100192.50;;;12.41;100.00
4392;BME280;2210;51.938;8.488;2022-09-24T03:09:11;100181.47;;;12.46;100.00
4392;BME280;2210;51.938;8.488;2022-09-24T03:13:12;100180.38;;;12.47;100.00
4392;BME280;2210;51.938;8.488;2022-09-24T03:17:12;100180.09;;;12.44;100.00
4392;BME280;2210;51.938;8.488;2022-09-24T03:21:15;100188.50;;;12.32;100.00
4392;BME280;2210;51.938;8.488;2022-09-24T03:25:16;100176.47;;;12.43;100.00
4392;BME280;2210;51.938;8.488;2022-09-24T03:29:16;100176.78;;;12.47;100.00
4392;BME280;2210;51.938;8.488;2022-09-24T03:33:39;100182.59;;;12.45;100.00
4392;BME280;2210;51.938;8.488;2022-09-24T03:37:40;100180.97;;;12.50;100.00
4392;BME280;2210;51.938;8.488;2022-09-24T03:41:42;100178.22;;;12.50;100.00
4392;BME280;2210;51.938;8.488;2022-09-24T03:45:42;100174.53;;;12.22;100.00
4392;BME280;2210;51.938;8.488;2022-09-24T03:49:42;100169.97;;;12.32;100.00
4392;BME280;2210;51.938;8.488;2022-09-24T03:53:43;100173.63;;;12.38;100.00
4392;BME280;2210;51.938;8.488;2022-09-24T03:57:43;100163.09;;;12.35;100.00
4392;BME280;2210;51.938;8.488;2022-09-24T04:01:44;100160.47;;;12.23;100.00
4392;BME280;2210;51.938;8.488;2022-09-24T04:05:44;100163.41;;;12.17;100.00
4392;BME280;2210;51.938;8.488;2022-09-24T04:09:44;100167.34;;;12.21;100.00
4392;BME280;2210;51.938;8.488;2022-09-24T04:13:45;100159.66;;;12.23;100.00
4392;BME280;2210;51.938;8.488;2022-09-24T04:17:50;100164.56;;;12.21;100.00
4392;BME280;2210;51.938;8.488;2022-09-24T04:21:50;100160.16;;;12.20;100.00
4392;BME280;2210;51.938;8.488;2022-09-24T04:25:50;100161.78;;;12.16;100.00
4392;BME280;2210;51.938;8.488;2022-09-24T04:29:51;100161.63;;;12.05;100.00
4392;BME280;2210;51.938;8.488;2022-09-24T04:33:53;100153.22;;;12.17;100.00
4392;BME280;2210;51.938;8.488;2022-09-24T04:37:54;100148.00;;;12.21;100.00
4392;BME280;2210;51.938;8.488;2022-09-24T04:41:55;100146.47;;;12.08;100.00
4392;BME280;2210;51.938;8.488;2022-09-24T04:45:56;100151.84;;;11.97;100.00
4392;BME280;2210;51.938;8.488;2022-09-24T04:49:58;100146.47;;;12.08;100.00
4392;BME280;2210;51.938;8.488;2022-09-24T04:53:59;100146.41;;;12.03;100.00
4392;BME280;2210;51.938;8.488;2022-09-24T04:58:02;100150.19;;;11.96;100.00
4392;BME280;2210;51.938;8.488;2022-09-24T05:02:02;100155.88;;;11.90;100.00
4392;BME280;2210;51.938;8.488;2022-09-24T05:06:03;100154.94;;;12.01;100.00
4392;BME280;2210;51.938;8.488;2022-09-24T05:10:03;100158.66;;;11.90;100.00
4392;BME280;2210;51.938;8.488;2022-09-24T05:14:05;100157.53;;;11.91;100.00
4392;BME280;2210;51.938;8.488;2022-09-24T05:18:05;100168.53;;;11.86;100.00
4392;BME280;2210;51.938;8.488;2022-09-24T05:22:06;100166.25;;;11.82;100.00
4392;BME280;2210;51.938;8.488;2022-09-24T05:26:06;100169.16;;;11.93;100.00
4392;BME280;2210;51.938;8.488;2022-09-24T05:30:25;100183.66;;;12.00;100.00
4392;BME280;2210;51.938;8.488;2022-09-24T05:34:25;100186.06;;;12.13;100.00
4392;BME280;2210;51.938;8.488;2022-09-24T05:38:26;100184.25;;;12.02;100.00
4392;BME280;2210;51.938;8.488;2022-09-24T05:42:26;100184.81;;;12.04;100.00
4392;BME280;2210;51.938;8.488;2022-09-24T05:46:26;100189.78;;;12.02;100.00
4392;BME280;2210;51.938;8.488;2022-09-24T05:50:28;100196.91;;;11.98;100.00
4392;BME280;2210;51.938;8.488;2022-09-24T05:54:29;100194.47;;;11.85;100.00
4392;BME280;2210;51.938;8.488;2022-09-24T05:58:29;100193.88;;;11.82;100.00
4392;BME280;2210;51.938;8.488;2022-09-24T06:02:30;100202.25;;;11.88;100.00
4392;BME280;2210;51.938;8.488;2022-09-24T06:06:30;100200.66;;;11.92;100.00
4392;BME280;2210;51.938;8.488;2022-09-24T06:10:31;100199.56;;;11.93;100.00
4392;BME280;2210;51.938;8.488;2022-09-24T06:14:31;100197.81;;;11.87;100.00
4392;BME280;2210;51.938;8.488;2022-09-24T06:18:35;100195.38;;;11.90;100.00
4392;BME280;2210;51.938;8.488;2022-09-24T06:22:39;100200.91;;;11.90;100.00
4392;BME280;2210;51.938;8.488;2022-09-24T06:26:39;100196.16;;;11.86;100.00
4392;BME280;2210;51.938;8.488;2022-09-24T06:30:40;100200.75;;;11.80;100.00
4392;BME280;2210;51.938;8.488;2022-09-24T06:34:40;100206.53;;;11.78;100.00
4392;BME280;2210;51.938;8.488;2022-09-24T06:38:40;100204.78;;;11.72;100.00
4392;BME280;2210;51.938;8.488;2022-09-24T06:42:41;100201.16;;;11.89;100.00
4392;BME280;2210;51.938;8.488;2022-09-24T06:46:42;100202.25;;;11.88;100.00
4392;BME280;2210;51.938;8.488;2022-09-24T06:50:43;100204.94;;;12.00;100.00
4392;BME280;2210;51.938;8.488;2022-09-24T06:54:44;100206.09;;;11.87;100.00
4392;BME280;2210;51.938;8.488;2022-09-24T06:58:44;100199.66;;;11.81;100.00
4392;BME280;2210;51.938;8.488;2022-09-24T07:02:52;100205.09;;;11.93;100.00
4392;BME280;2210;51.938;8.488;2022-09-24T07:06:52;100201.84;;;11.96;100.00
4392;BME280;2210;51.938;8.488;2022-09-24T07:11:15;100199.81;;;11.91;100.00
4392;BME280;2210;51.938;8.488;2022-09-24T07:15:18;100202.91;;;11.95;100.00
4392;BME280;2210;51.938;8.488;2022-09-24T07:19:18;100206.94;;;12.04;100.00
4392;BME280;2210;51.938;8.488;2022-09-24T07:23:19;100205.31;;;12.08;100.00
4392;BME280;2210;51.938;8.488;2022-09-24T07:27:20;100206.19;;;12.09;100.00
4392;BME280;2210;51.938;8.488;2022-09-24T07:31:21;100199.34;;;12.17;100.00
4392;BME280;2210;51.938;8.488;2022-09-24T07:35:22;100204.06;;;12.16;100.00
4392;BME280;2210;51.938;8.488;2022-09-24T07:39:23;100207.72;;;12.22;100.00
4392;BME280;2210;51.938;8.488;2022-09-24T07:43:24;100207.78;;;12.27;100.00
4392;BME280;2210;51.938;8.488;2022-09-24T07:47:24;100198.72;;;12.31;100.00
4392;BME280;2210;51.938;8.488;2022-09-24T07:51:26;100210.44;;;12.39;100.00
4392;BME280;2210;51.938;8.488;2022-09-24T07:55:27;100208.63;;;12.50;100.00
4392;BME280;2210;51.938;8.488;2022-09-24T07:59:28;100210.59;;;12.54;100.00
4392;BME280;2210;51.938;8.488;2022-09-24T08:03:29;100213.25;;;12.66;100.00
4392;BME280;2210;51.938;8.488;2022-09-24T08:07:30;100215.88;;;12.78;100.00
4392;BME280;2210;51.938;8.488;2022-09-24T08:11:30;100217.84;;;12.82;100.00
4392;BME280;2210;51.938;8.488;2022-09-24T08:15:30;100219.47;;;12.78;100.00
4392;BME280;2210;51.938;8.488;2022-09-24T08:19:31;100222.81;;;12.80;100.00
4392;BME280;2210;51.938;8.488;2022-09-24T08:23:32;100230.88;;;12.87;100.00
4392;BME280;2210;51.938;8.488;2022-09-24T08:27:33;100221.91;;;13.02;100.00
4392;BME280;2210;51.938;8.488;2022-09-24T08:31:36;100219.56;;;13.16;100.00
4392;BME280;2210;51.938;8.488;2022-09-24T08:35:37;100229.31;;;13.24;100.00
4392;BME280;2210;51.938;8.488;2022-09-24T08:39:39;100223.78;;;13.24;100.00
4392;BME280;2210;51.938;8.488;2022-09-24T08:44:03;100224.63;;;13.24;100.00
4392;BME280;2210;51.938;8.488;2022-09-24T08:48:16;100233.88;;;13.35;100.00
4392;BME280;2210;51.938;8.488;2022-09-24T08:53:17;100239.88;;;13.27;100.00
4392;BME280;2210;51.938;8.488;2022-09-24T08:57:22;100232.41;;;13.27;100.00
4392;BME280;2210;51.938;8.488;2022-09-24T09:10:35;100245.22;;;13.33;100.00
4392;BME280;2210;51.938;8.488;2022-09-24T09:14:40;100241.19;;;13.46;100.00
4392;BME280;2210;51.938;8.488;2022-09-24T09:18:45;100240.44;;;13.56;100.00
4392;BME280;2210;51.938;8.488;2022-09-24T09:22:50;100241.31;;;13.62;100.00
4392;BME280;2210;51.938;8.488;2022-09-24T09:26:55;100241.38;;;13.72;100.00
4392;BME280;2210;51.938;8.488;2022-09-24T09:35:16;100253.44;;;13.56;100.00
4392;BME280;2210;51.938;8.488;2022-09-24T09:43:40;100247.41;;;13.64;100.00
4392;BME280;2210;51.938;8.488;2022-09-24T09:47:49;100255.50;;;13.71;100.00
4392;BME280;2210;51.938;8.488;2022-09-24T09:51:55;100250.34;;;13.85;100.00
4392;BME280;2210;51.938;8.488;2022-09-24T09:55:59;100245.34;;;13.81;100.00
4392;BME280;2210;51.938;8.488;2022-09-24T10:00:01;100240.84;;;13.75;100.00
4392;BME280;2210;51.938;8.488;2022-09-24T10:04:02;100243.34;;;13.72;100.00
4392;BME280;2210;51.938;8.488;2022-09-24T10:08:03;100245.84;;;13.73;100.00
4392;BME280;2210;51.938;8.488;2022-09-24T10:12:18;100253.19;;;13.95;100.00
4392;BME280;2210;51.938;8.488;2022-09-24T10:16:21;100245.44;;;13.97;100.00
4392;BME280;2210;51.938;8.488;2022-09-24T10:20:26;100241.03;;;14.01;100.00
4392;BME280;2210;51.938;8.488;2022-09-24T10:24:28;100247.38;;;13.96;100.00
4392;BME280;2210;51.938;8.488;2022-09-24T10:28:29;100247.09;;;13.98;100.00
4392;BME280;2210;51.938;8.488;2022-09-24T10:32:55;100239.69;;;14.09;100.00
4392;BME280;2210;51.938;8.488;2022-09-24T10:37:02;100238.63;;;14.15;100.00
4392;BME280;2210;51.938;8.488;2022-09-24T10:41:13;100238.88;;;14.08;100.00
4392;BME280;2210;51.938;8.488;2022-09-24T10:45:14;100241.06;;;14.06;100.00
4392;BME280;2210;51.938;8.488;2022-09-24T10:49:39;100243.56;;;14.08;100.00
4392;BME280;2210;51.938;8.488;2022-09-24T10:53:58;100246.63;;;14.11;100.00
4392;BME280;2210;51.938;8.488;2022-09-24T10:58:03;100243.13;;;14.26;100.00
4392;BME280;2210;51.938;8.488;2022-09-24T11:06:40;100246.75;;;14.32;100.00
4392;BME280;2210;51.938;8.488;2022-09-24T11:15:24;100248.97;;;14.35;100.00
4392;BME280;2210;51.938;8.488;2022-09-24T11:28:39;100236.88;;;14.52;100.00
4392;BME280;2210;51.938;8.488;2022-09-24T11:37:00;100234.41;;;14.60;100.00
4392;BME280;2210;51.938;8.488;2022-09-24T11:41:31;100222.53;;;14.70;100.00
4392;BME280;2210;51.938;8.488;2022-09-24T11:45:50;100231.31;;;14.57;100.00
4392;BME280;2210;51.938;8.488;2022-09-24T11:50:28;100229.94;;;14.59;100.00
4392;BME280;2210;51.938;8.488;2022-09-24T12:07:41;100213.50;;;14.37;100.00
4392;BME280;2210;51.938;8.488;2022-09-24T12:11:57;100220.19;;;14.41;100.00
4392;BME280;2210;51.938;8.488;2022-09-24T12:16:12;100221.31;;;14.45;100.00
4392;BME280;2210;51.938;8.488;2022-09-24T12:20:19;100221.06;;;14.52;100.00
4392;BME280;2210;51.938;8.488;2022-09-24T12:24:27;100219.97;;;14.58;100.00
4392;BME280;2210;51.938;8.488;2022-09-24T12:28:38;100213.56;;;14.53;100.00
4392;BME280;2210;51.938;8.488;2022-09-24T12:33:04;100234.88;;;14.37;100.00
4392;BME280;2210;51.938;8.488;2022-09-24T12:37:10;100245.91;;;14.26;100.00
4392;BME280;2210;51.938;8.488;2022-09-24T12:41:20;100218.00;;;13.58;100.00
4392;BME280;2210;51.938;8.488;2022-09-24T12:45:24;100224.06;;;13.55;100.00
4392;BME280;2210;51.938;8.488;2022-09-24T12:53:32;100231.16;;;13.78;100.00
4392;BME280;2210;51.938;8.488;2022-09-24T12:57:35;100229.31;;;13.89;100.00
4392;BME280;2210;51.938;8.488;2022-09-24T13:01:38;100226.34;;;14.00;100.00
4392;BME280;2210;51.938;8.488;2022-09-24T13:09:39;100210.63;;;14.16;100.00
4392;BME280;2210;51.938;8.488;2022-09-24T13:13:39;100214.50;;;14.15;100.00
4392;BME280;2210;51.938;8.488;2022-09-24T13:17:44;100209.25;;;14.19;100.00
4392;BME280;2210;51.938;8.488;2022-09-24T13:21:52;100210.63;;;14.16;100.00
4392;BME280;2210;51.938;8.488;2022-09-24T13:34:21;100209.63;;;14.38;100.00
4392;BME280;2210;51.938;8.488;2022-09-24T13:38:27;100210.16;;;14.35;100.00
4392;BME280;2210;51.938;8.488;2022-09-24T13:42:49;100208.47;;;14.29;100.00
4392;BME280;2210;51.938;8.488;2022-09-24T13:46:59;100215.41;;;14.31;100.00
4392;BME280;2210;51.938;8.488;2022-09-24T13:51:02;100216.22;;;14.22;100.00
4392;BME280;2210;51.938;8.488;2022-09-24T13:59:21;100215.44;;;14.37;100.00
4392;BME280;2210;51.938;8.488;2022-09-24T14:03:25;100222.97;;;14.46;100.00
4392;BME280;2210;51.938;8.488;2022-09-24T14:07:26;100224.03;;;14.40;100.00
4392;BME280;2210;51.938;8.488;2022-09-24T14:11:27;100221.25;;;14.35;100.00
4392;BME280;2210;51.938;8.488;2022-09-24T14:15:27;100226.53;;;14.42;100.00
4392;BME280;2210;51.938;8.488;2022-09-24T14:19:28;100215.69;;;14.35;100.00
4392;BME280;2210;51.938;8.488;2022-09-24T14:23:32;100226.78;;;14.30;100.00
4392;BME280;2210;51.938;8.488;2022-09-24T14:27:42;100222.38;;;14.34;100.00
4392;BME280;2210;51.938;8.488;2022-09-24T14:31:46;100224.94;;;14.51;100.00
4392;BME280;2210;51.938;8.488;2022-09-24T14:35:50;100220.75;;;14.48;100.00
4392;BME280;2210;51.938;8.488;2022-09-24T14:40:00;100216.09;;;14.54;100.00
4392;BME280;2210;51.938;8.488;2022-09-24T14:44:11;100225.47;;;14.48;100.00
4392;BME280;2210;51.938;8.488;2022-09-24T14:48:23;100216.88;;;14.49;100.00
4392;BME280;2210;51.938;8.488;2022-09-24T14:56:31;100226.72;;;14.78;100.00
4392;BME280;2210;51.938;8.488;2022-09-24T15:00:45;100215.34;;;14.69;100.00
4392;BME280;2210;51.938;8.488;2022-09-24T15:04:51;100220.91;;;14.79;100.00
4392;BME280;2210;51.938;8.488;2022-09-24T15:09:05;100232.25;;;14.73;100.00
4392;BME280;2210;51.938;8.488;2022-09-24T15:13:13;100221.97;;;14.63;100.00
4392;BME280;2210;51.938;8.488;2022-09-24T15:17:23;100221.44;;;14.71;100.00
4392;BME280;2210;51.938;8.488;2022-09-24T15:21:23;100219.81;;;14.86;100.00
4392;BME280;2210;51.938;8.488;2022-09-24T15:25:24;100221.47;;;14.92;100.00
4392;BME280;2210;51.938;8.488;2022-09-24T15:29:24;100221.19;;;14.93;100.00
4392;BME280;2210;51.938;8.488;2022-09-24T15:33:25;100220.06;;;14.79;100.00
4392;BME280;2210;51.938;8.488;2022-09-24T15:37:27;100223.66;;;14.74;100.00
4392;BME280;2210;51.938;8.488;2022-09-24T15:41:28;100227.81;;;14.77;100.00
4392;BME280;2210;51.938;8.488;2022-09-24T15:45:28;100226.69;;;14.73;100.00
4392;BME280;2210;51.938;8.488;2022-09-24T15:49:29;100229.75;;;14.71;100.00
4392;BME280;2210;51.938;8.488;2022-09-24T15:53:30;100231.44;;;14.72;100.00
4392;BME280;2210;51.938;8.488;2022-09-24T15:57:30;100229.47;;;14.73;100.00
4392;BME280;2210;51.938;8.488;2022-09-24T16:01:31;100226.69;;;14.73;100.00
4392;BME280;2210;51.938;8.488;2022-09-24T16:05:31;100227.56;;;14.73;100.00
4392;BME280;2210;51.938;8.488;2022-09-24T16:09:31;100227.00;;;14.76;100.00
4392;BME280;2210;51.938;8.488;2022-09-24T16:13:31;100231.44;;;14.72;100.00
4392;BME280;2210;51.938;8.488;2022-09-24T16:17:34;100229.22;;;14.69;100.00
4392;BME280;2210;51.938;8.488;2022-09-24T16:21:34;100228.63;;;14.67;100.00
4392;BME280;2210;51.938;8.488;2022-09-24T16:25:34;100228.13;;;14.86;100.00
4392;BME280;2210;51.938;8.488;2022-09-24T16:29:35;100233.38;;;14.77;100.00
4392;BME280;2210;51.938;8.488;2022-09-24T16:33:38;100235.22;;;14.61;100.00
4392;BME280;2210;51.938;8.488;2022-09-24T16:37:39;100244.69;;;14.60;100.00
4392;BME280;2210;51.938;8.488;2022-09-24T16:41:39;100239.13;;;14.60;100.00
4392;BME280;2210;51.938;8.488;2022-09-24T16:45:40;100235.13;;;14.40;100.00
4392;BME280;2210;51.938;8.488;2022-09-24T16:49:41;100236.28;;;14.44;100.00
4392;BME280;2210;51.938;8.488;2022-09-24T16:53:42;100236.75;;;14.31;100.00
4392;BME280;2210;51.938;8.488;2022-09-24T16:57:42;100233.13;;;14.25;100.00
4392;BME280;2210;51.938;8.488;2022-09-24T17:01:42;100237.84;;;14.25;100.00
4392;BME280;2210;51.938;8.488;2022-09-24T17:05:43;100245.06;;;14.26;100.00
4392;BME280;2210;51.938;8.488;2022-09-24T17:09:43;100242.81;;;14.23;100.00
4392;BME280;2210;51.938;8.488;2022-09-24T17:14:06;100240.59;;;14.20;100.00
4392;BME280;2210;51.938;8.488;2022-09-24T17:18:07;100243.91;;;14.16;100.00
4392;BME280;2210;51.938;8.488;2022-09-24T17:22:07;100240.56;;;14.14;100.00
4392;BME280;2210;51.938;8.488;2022-09-24T17:26:09;100240.00;;;14.12;100.00
4392;BME280;2210;51.938;8.488;2022-09-24T17:30:11;100243.59;;;14.13;100.00
4392;BME280;2210;51.938;8.488;2022-09-24T17:34:11;100241.09;;;14.11;100.00
4392;BME280;2210;51.938;8.488;2022-09-24T17:38:14;100243.06;;;14.11;100.00
4392;BME280;2210;51.938;8.488;2022-09-24T17:42:15;100242.16;;;14.05;100.00
4392;BME280;2210;51.938;8.488;2022-09-24T17:46:17;100237.19;;;14.07;100.00
4392;BME280;2210;51.938;8.488;2022-09-24T17:50:23;100234.97;;;14.04;100.00
4392;BME280;2210;51.938;8.488;2022-09-24T17:54:26;100247.69;;;14.00;100.00
4392;BME280;2210;51.938;8.488;2022-09-24T17:58:39;100251.25;;;13.95;100.00
4392;BME280;2210;51.938;8.488;2022-09-24T18:02:42;100253.19;;;13.95;100.00
4392;BME280;2210;51.938;8.488;2022-09-24T18:06:44;100254.03;;;13.95;100.00
4392;BME280;2210;51.938;8.488;2022-09-24T18:10:44;100261.78;;;13.93;100.00
4392;BME280;2210;51.938;8.488;2022-09-24T18:14:45;100252.63;;;13.93;100.00
4392;BME280;2210;51.938;8.488;2022-09-24T18:18:45;100258.69;;;13.90;100.00
4392;BME280;2210;51.938;8.488;2022-09-24T18:22:48;100264.47;;;13.83;100.00
4392;BME280;2210;51.938;8.488;2022-09-24T18:26:48;100269.13;;;13.77;100.00
4392;BME280;2210;51.938;8.488;2022-09-24T18:31:00;100275.22;;;13.74;100.00
4392;BME280;2210;51.938;8.488;2022-09-24T18:35:05;100273.81;;;13.72;100.00
4392;BME280;2210;51.938;8.488;2022-09-24T18:39:10;100274.72;;;13.82;100.00
4392;BME280;2210;51.938;8.488;2022-09-24T18:43:17;100273.28;;;13.75;100.00
4392;BME280;2210;51.938;8.488;2022-09-24T18:51:46;100278.59;;;13.81;100.00
4392;BME280;2210;51.938;8.488;2022-09-24T18:55:46;100265.56;;;13.82;100.00
4392;BME280;2210;51.938;8.488;2022-09-24T18:59:46;100275.25;;;13.79;100.00
4392;BME280;2210;51.938;8.488;2022-09-24T19:03:48;100279.69;;;13.80;100.00
4392;BME280;2210;51.938;8.488;2022-09-24T19:07:51;100287.47;;;13.83;100.00
4392;BME280;2210;51.938;8.488;2022-09-24T19:12:11;100287.66;;;13.72;100.00
4392;BME280;2210;51.938;8.488;2022-09-24T19:16:37;100292.94;;;13.73;100.00
4392;BME280;2210;51.938;8.488;2022-09-24T19:20:39;100299.00;;;13.70;100.00
4392;BME280;2210;51.938;8.488;2022-09-24T19:24:47;100299.00;;;13.70;100.00
4392;BME280;2210;51.938;8.488;2022-09-24T19:28:51;100305.66;;;13.69;100.00
4392;BME280;2210;51.938;8.488;2022-09-24T19:32:54;100300.38;;;13.68;100.00
4392;BME280;2210;51.938;8.488;2022-09-24T19:37:05;100295.66;;;13.68;100.00
4392;BME280;2210;51.938;8.488;2022-09-24T19:41:41;100302.81;;;13.64;100.00
4392;BME280;2210;51.938;8.488;2022-09-24T20:01:42;100317.00;;;13.68;100.00
4392;BME280;2210;51.938;8.488;2022-09-24T20:16:00;100302.56;;;13.65;100.00
4392;BME280;2210;51.938;8.488;2022-09-24T20:20:24;100307.81;;;13.62;100.00
4392;BME280;2210;51.938;8.488;2022-09-24T20:24:24;100306.63;;;13.58;100.00
4392;BME280;2210;51.938;8.488;2022-09-24T20:28:31;100303.41;;;13.66;100.00
4392;BME280;2210;51.938;8.488;2022-09-24T20:32:33;100303.91;;;13.63;100.00
4392;BME280;2210;51.938;8.488;2022-09-24T20:36:51;100300.81;;;13.54;100.00
4392;BME280;2210;51.938;8.488;2022-09-24T20:41:08;100298.81;;;13.49;100.00
4392;BME280;2210;51.938;8.488;2022-09-24T20:45:30;100299.88;;;13.43;100.00
4392;BME280;2210;51.938;8.488;2022-09-24T20:49:36;100308.13;;;13.38;100.00
4392;BME280;2210;51.938;8.488;2022-09-24T21:13:07;100311.88;;;13.27;100.00
4392;BME280;2210;51.938;8.488;2022-09-24T21:17:10;100318.75;;;13.24;100.00
4392;BME280;2210;51.938;8.488;2022-09-24T21:21:43;100315.47;;;13.27;100.00
4392;BME280;2210;51.938;8.488;2022-09-24T21:25:43;100314.63;;;13.27;100.00
4392;BME280;2210;51.938;8.488;2022-09-24T21:29:44;100305.19;;;13.23;100.00
4392;BME280;2210;51.938;8.488;2022-09-24T21:33:48;100311.22;;;13.20;100.00
4392;BME280;2210;51.938;8.488;2022-09-24T21:37:48;100311.22;;;13.20;100.00
4392;BME280;2210;51.938;8.488;2022-09-24T21:41:49;100321.53;;;13.24;100.00
4392;BME280;2210;51.938;8.488;2022-09-24T21:46:02;100325.06;;;13.20;100.00
4392;BME280;2210;51.938;8.488;2022-09-24T21:50:03;100316.75;;;13.20;100.00
4392;BME280;2210;51.938;8.488;2022-09-24T21:54:05;100313.41;;;13.18;100.00
4392;BME280;2210;51.938;8.488;2022-09-24T21:58:06;100319.53;;;13.20;100.00
4392;BME280;2210;51.938;8.488;2022-09-24T22:02:06;100318.38;;;13.15;100.00
4392;BME280;2210;51.938;8.488;2022-09-24T22:06:10;100314.25;;;13.18;100.00
4392;BME280;2210;51.938;8.488;2022-09-24T22:10:11;100313.69;;;13.16;100.00
4392;BME280;2210;51.938;8.488;2022-09-24T22:14:12;100327.72;;;13.09;100.00
4392;BME280;2210;51.938;8.488;2022-09-24T22:18:12;100319.50;;;13.14;100.00
4392;BME280;2210;51.938;8.488;2022-09-24T22:22:13;100316.72;;;13.14;100.00
4392;BME280;2210;51.938;8.488;2022-09-24T22:26:13;100313.03;;;13.09;100.00
4392;BME280;2210;51.938;8.488;2022-09-24T22:30:14;100313.28;;;13.07;100.00
4392;BME280;2210;51.938;8.488;2022-09-24T22:34:14;100309.44;;;13.08;100.00
4392;BME280;2210;51.938;8.488;2022-09-24T22:38:50;100312.16;;;13.03;100.00
4392;BME280;2210;51.938;8.488;2022-09-24T22:42:50;100304.94;;;13.02;100.00
4392;BME280;2210;51.938;8.488;2022-09-24T22:46:51;100309.63;;;13.02;100.00
4392;BME280;2210;51.938;8.488;2022-09-24T22:50:51;100315.44;;;13.00;100.00
4392;BME280;2210;51.938;8.488;2022-09-24T22:54:51;100311.59;;;13.01;100.00
4392;BME280;2210;51.938;8.488;2022-09-24T22:58:54;100314.84;;;12.98;100.00
4392;BME280;2210;51.938;8.488;2022-09-24T23:02:54;100318.53;;;13.04;100.00
4392;BME280;2210;51.938;8.488;2022-09-24T23:06:55;100311.78;;;12.94;100.00
4392;BME280;2210;51.938;8.488;2022-09-24T23:10:55;100315.97;;;12.97;100.00
4392;BME280;2210;51.938;8.488;2022-09-24T23:14:55;100316.97;;;12.91;100.00
4392;BME280;2210;51.938;8.488;2022-09-24T23:18:59;100313.13;;;12.92;100.00
4392;BME280;2210;51.938;8.488;2022-09-24T23:23:00;100319.19;;;12.89;100.00
4392;BME280;2210;51.938;8.488;2022-09-24T23:27:00;100326.44;;;12.95;100.00
4392;BME280;2210;51.938;8.488;2022-09-24T23:31:01;100314.81;;;12.93;100.00
4392;BME280;2210;51.938;8.488;2022-09-24T23:35:01;100309.28;;;12.93;100.00
4392;BME280;2210;51.938;8.488;2022-09-24T23:39:02;100310.88;;;12.89;100.00
4392;BME280;2210;51.938;8.488;2022-09-24T23:43:03;100319.41;;;12.87;100.00
4392;BME280;2210;51.938;8.488;2022-09-24T23:47:04;100315.56;;;12.88;100.00